createdAt,value
2022-08-28T00:02:00.978Z,60.62
2022-08-28T00:04:28.159Z,58.15
2022-08-28T00:06:54.938Z,57.95
2022-08-28T00:09:21.987Z,57.88
2022-08-28T00:11:49.450Z,56.47
2022-08-28T00:14:21.006Z,55.94
2022-08-28T00:16:48.278Z,53.94
2022-08-28T00:19:16.986Z,56.30
2022-08-28T00:21:44.453Z,54.86
2022-08-28T00:24:11.818Z,53.04
2022-08-28T00:26:57.276Z,52.59
2022-08-28T00:29:24.838Z,51.23
2022-08-28T00:31:52.112Z,52.62
2022-08-28T00:34:18.910Z,51.59
2022-08-28T00:36:52.378Z,51.51
2022-08-28T00:39:19.537Z,51.28
2022-08-28T00:41:46.788Z,51.67
2022-08-28T00:44:16.926Z,51.33
2022-08-28T00:46:46.478Z,50.33
2022-08-28T00:49:16.786Z,51.11
2022-08-28T00:52:02.671Z,51.25
2022-08-28T00:54:58.730Z,50.68
2022-08-28T00:57:31.023Z,50.68
2022-08-28T00:59:58.526Z,49.64
2022-08-28T01:02:26.602Z,49.82
2022-08-28T01:04:54.487Z,50.35
2022-08-28T01:07:23.265Z,49.99
2022-08-28T01:09:53.507Z,49.51
2022-08-28T01:12:27.591Z,49.13
2022-08-28T01:15:01.448Z,48.87
2022-08-28T01:17:31.306Z,48.66
2022-08-28T01:20:04.677Z,48.39
2022-08-28T01:23:02.425Z,48.79
2022-08-28T01:25:34.382Z,49.19
2022-08-28T01:28:01.545Z,49.18
2022-08-28T01:30:31.850Z,49.46
2022-08-28T01:32:59.402Z,48.30
2022-08-28T01:35:32.963Z,48.56
2022-08-28T01:38:01.375Z,48.17
2022-08-28T01:40:32.643Z,47.79
2022-08-28T01:43:22.210Z,47.79
2022-08-28T01:45:53.177Z,48.32
2022-08-28T01:48:21.999Z,47.90
2022-08-28T01:50:48.989Z,47.84
2022-08-28T01:53:17.803Z,48.23
2022-08-28T01:55:46.155Z,48.39
2022-08-28T01:58:13.654Z,48.04
2022-08-28T02:00:40.519Z,48.48
2022-08-28T02:03:08.431Z,48.50
2022-08-28T02:05:36.038Z,48.61
2022-08-28T02:08:04.752Z,48.58
2022-08-28T02:10:34.979Z,48.84
2022-08-28T02:13:02.530Z,48.67
2022-08-28T02:15:31.493Z,48.89
2022-08-28T02:17:59.930Z,48.66
2022-08-28T02:20:28.650Z,48.66
2022-08-28T02:22:56.518Z,48.77
2022-08-28T02:25:24.342Z,49.00
2022-08-28T02:27:51.023Z,49.44
2022-08-28T02:30:18.012Z,49.49
2022-08-28T02:32:46.223Z,49.42
2022-08-28T02:35:15.739Z,49.56
2022-08-28T02:37:44.293Z,49.56
2022-08-28T02:40:14.598Z,49.56
2022-08-28T02:42:42.081Z,49.26
2022-08-28T02:45:11.826Z,49.32
2022-08-28T02:47:40.273Z,49.26
2022-08-28T02:50:09.412Z,49.36
2022-08-28T02:52:37.442Z,49.24
2022-08-28T02:55:09.837Z,49.13
2022-08-28T02:57:36.772Z,49.11
2022-08-28T03:00:11.951Z,48.69
2022-08-28T03:02:40.198Z,48.82
2022-08-28T03:05:09.100Z,48.84
2022-08-28T03:07:35.839Z,49.14
2022-08-28T03:10:04.476Z,49.05
2022-08-28T03:12:31.162Z,49.48
2022-08-28T03:14:57.889Z,49.14
2022-08-28T03:17:25.049Z,49.07
2022-08-28T03:19:52.233Z,49.19
2022-08-28T03:22:43.205Z,49.40
2022-08-28T03:25:12.037Z,49.13
2022-08-28T03:27:39.085Z,49.49
2022-08-28T03:30:07.952Z,49.53
2022-08-28T03:32:35.542Z,49.44
2022-08-28T03:35:04.019Z,49.20
2022-08-28T03:37:31.380Z,49.36
2022-08-28T03:39:58.406Z,49.31
2022-08-28T03:42:25.256Z,49.28
2022-08-28T03:44:51.899Z,49.30
2022-08-28T03:47:18.806Z,49.13
2022-08-28T03:49:53.715Z,49.15
2022-08-28T03:52:21.052Z,49.42
2022-08-28T03:54:48.141Z,49.85
2022-08-28T03:57:19.969Z,50.20
2022-08-28T03:59:51.941Z,50.62
2022-08-28T04:02:20.512Z,51.93
2022-08-28T04:04:49.553Z,53.87
2022-08-28T04:07:18.405Z,54.72
2022-08-28T04:09:45.768Z,55.10
2022-08-28T04:12:13.247Z,55.47
2022-08-28T04:14:40.282Z,55.42
2022-08-28T04:17:07.544Z,55.37
2022-08-28T04:19:34.664Z,55.28
2022-08-28T04:22:01.736Z,55.40
2022-08-28T04:24:28.496Z,55.66
2022-08-28T04:26:55.743Z,55.68
2022-08-28T04:29:23.158Z,55.84
2022-08-28T04:31:50.464Z,55.99
2022-08-28T04:34:18.041Z,56.14
2022-08-28T04:36:46.028Z,55.86
2022-08-28T04:39:13.179Z,56.53
2022-08-28T04:41:40.576Z,56.33
2022-08-28T04:44:09.329Z,56.19
2022-08-28T04:46:36.470Z,56.01
2022-08-28T04:49:04.858Z,55.87
2022-08-28T04:51:31.905Z,55.18
2022-08-28T04:53:58.763Z,55.60
2022-08-28T04:56:26.560Z,55.55
2022-08-28T04:58:53.571Z,55.56
2022-08-28T05:01:24.404Z,55.60
2022-08-28T05:03:58.445Z,55.71
2022-08-28T05:06:27.350Z,56.05
2022-08-28T05:08:57.144Z,56.40
2022-08-28T05:11:33.394Z,56.34
2022-08-28T05:14:05.066Z,56.49
2022-08-28T05:16:33.164Z,56.35
2022-08-28T05:19:03.539Z,56.38
2022-08-28T05:21:30.655Z,56.26
2022-08-28T05:23:58.140Z,55.87
2022-08-28T05:26:26.992Z,55.84
2022-08-28T05:28:56.674Z,55.99
2022-08-28T05:31:24.154Z,56.00
2022-08-28T05:33:51.891Z,56.24
2022-08-28T05:36:22.094Z,56.31
2022-08-28T05:38:50.690Z,56.32
2022-08-28T05:41:21.410Z,56.71
2022-08-28T05:43:49.265Z,55.77
2022-08-28T05:46:17.409Z,56.52
2022-08-28T05:48:45.850Z,56.60
2022-08-28T05:51:18.373Z,56.26
2022-08-28T05:53:49.780Z,56.55
2022-08-28T05:56:22.968Z,56.43
2022-08-28T05:58:50.476Z,56.00
2022-08-28T06:01:29.415Z,56.05
2022-08-28T06:04:18.338Z,56.21
2022-08-28T06:06:46.190Z,55.94
2022-08-28T06:09:19.772Z,56.35
2022-08-28T06:11:47.464Z,56.10
2022-08-28T06:14:17.922Z,56.23
2022-08-28T06:16:49.694Z,56.73
2022-08-28T06:19:17.434Z,56.59
2022-08-28T06:21:44.404Z,56.88
2022-08-28T06:24:12.200Z,57.32
2022-08-28T06:26:40.202Z,57.19
2022-08-28T06:29:10.739Z,57.11
2022-08-28T06:31:38.047Z,57.03
2022-08-28T06:34:06.236Z,57.71
2022-08-28T06:36:35.283Z,57.66
2022-08-28T06:39:04.437Z,58.28
2022-08-28T06:41:32.881Z,59.02
2022-08-28T06:44:00.240Z,59.76
2022-08-28T06:46:30.363Z,59.18
2022-08-28T06:48:57.454Z,58.19
2022-08-28T06:51:25.068Z,59.76
2022-08-28T06:53:51.931Z,59.20
2022-08-28T06:56:26.139Z,59.61
2022-08-28T06:58:56.800Z,59.67
2022-08-28T07:01:24.527Z,59.40
2022-08-28T07:03:54.131Z,58.86
2022-08-28T07:06:22.793Z,59.55
2022-08-28T07:08:51.072Z,58.54
2022-08-28T07:11:28.898Z,57.88
2022-08-28T07:13:57.186Z,57.19
2022-08-28T07:16:27.004Z,57.63
2022-08-28T07:18:54.118Z,59.25
2022-08-28T07:21:21.564Z,60.48
2022-08-28T07:23:48.761Z,61.60
2022-08-28T07:26:20.168Z,61.66
2022-08-28T07:28:47.332Z,61.65
2022-08-28T07:31:17.618Z,61.97
2022-08-28T07:33:45.172Z,60.87
2022-08-28T07:36:29.764Z,61.16
2022-08-28T07:38:59.286Z,60.96
2022-08-28T07:41:28.678Z,61.24
2022-08-28T07:44:14.906Z,60.20
2022-08-28T07:46:42.307Z,60.18
2022-08-28T07:49:09.824Z,60.97
2022-08-28T07:51:37.023Z,60.84
2022-08-28T07:54:05.102Z,60.83
2022-08-28T07:56:32.426Z,60.63
2022-08-28T07:59:01.191Z,60.33
2022-08-28T08:01:30.726Z,60.36
2022-08-28T08:04:01.769Z,59.42
2022-08-28T08:06:34.482Z,59.35
2022-08-28T08:09:03.223Z,59.18
2022-08-28T08:11:32.639Z,59.39
2022-08-28T08:14:05.391Z,59.40
2022-08-28T08:16:35.949Z,58.89
2022-08-28T08:19:04.046Z,58.81
2022-08-28T08:21:32.095Z,58.37
2022-08-28T08:23:59.484Z,58.62
2022-08-28T08:26:28.290Z,57.99
2022-08-28T08:28:56.584Z,57.72
2022-08-28T08:31:26.780Z,57.07
2022-08-28T08:33:57.413Z,56.73
2022-08-28T08:36:26.489Z,56.72
2022-08-28T08:38:59.797Z,56.58
2022-08-28T08:41:33.382Z,55.74
2022-08-28T08:44:15.156Z,55.66
2022-08-28T08:47:00.684Z,53.26
2022-08-28T08:49:32.699Z,54.11
2022-08-28T08:52:06.748Z,54.13
2022-08-28T08:54:33.600Z,53.41
2022-08-28T08:57:02.476Z,51.96
2022-08-28T08:59:32.625Z,51.95
2022-08-28T09:02:07.062Z,51.28
2022-08-28T09:04:56.477Z,50.67
2022-08-28T09:07:37.890Z,50.44
2022-08-28T09:10:08.145Z,49.75
2022-08-28T09:12:50.234Z,49.01
2022-08-28T09:15:31.921Z,48.74
2022-08-28T09:18:13.957Z,48.71
2022-08-28T09:20:42.192Z,47.05
2022-08-28T09:23:13.155Z,46.67
2022-08-28T09:26:02.355Z,47.22
2022-08-28T09:28:32.107Z,46.94
2022-08-28T09:31:07.674Z,44.80
2022-08-28T09:33:47.172Z,44.39
2022-08-28T09:36:35.866Z,43.10
2022-08-28T09:39:13.819Z,43.58
2022-08-28T09:42:07.308Z,42.39
2022-08-28T09:44:46.079Z,40.68
2022-08-28T09:47:56.247Z,39.91
2022-08-28T09:50:38.737Z,40.45
2022-08-28T09:53:11.677Z,40.83
2022-08-28T09:55:50.242Z,40.51
2022-08-28T09:58:19.533Z,40.71
2022-08-28T10:00:57.030Z,41.13
2022-08-28T10:03:54.486Z,41.63
2022-08-28T10:06:26.721Z,42.42
2022-08-28T10:09:04.679Z,42.16
2022-08-28T10:11:44.392Z,41.72
2022-08-28T10:14:14.462Z,39.99
2022-08-28T10:16:58.185Z,39.10
2022-08-28T10:19:28.158Z,40.00
2022-08-28T10:22:25.374Z,40.21
2022-08-28T10:25:19.360Z,40.98
2022-08-28T10:28:02.065Z,41.10
2022-08-28T10:30:33.772Z,41.45
2022-08-28T10:33:30.171Z,41.71
2022-08-28T10:36:32.923Z,41.97
2022-08-28T10:39:17.328Z,42.40
2022-08-28T10:41:56.694Z,42.80
2022-08-28T10:44:35.398Z,43.54
2022-08-28T10:47:05.517Z,44.15
2022-08-28T10:49:39.914Z,43.90
2022-08-28T10:52:19.016Z,43.51
2022-08-28T10:54:54.811Z,43.11
2022-08-28T10:57:49.440Z,42.28
2022-08-28T11:00:20.154Z,42.14
2022-08-28T11:02:55.008Z,41.90
2022-08-28T11:05:24.055Z,42.01
2022-08-28T11:07:59.395Z,41.68
2022-08-28T11:10:36.873Z,41.97
2022-08-28T11:13:06.306Z,41.66
2022-08-28T11:15:37.067Z,41.44
2022-08-28T11:18:16.714Z,41.10
2022-08-28T11:20:57.376Z,41.22
2022-08-28T11:23:33.583Z,41.07
2022-08-28T11:26:07.911Z,40.85
2022-08-28T11:28:35.071Z,41.40
2022-08-28T11:31:04.649Z,41.59
2022-08-28T11:33:52.546Z,42.28
2022-08-28T11:36:22.754Z,42.82
2022-08-28T11:38:52.148Z,44.87
2022-08-28T11:41:23.049Z,44.19
2022-08-28T11:44:09.004Z,44.90
2022-08-28T11:46:40.060Z,45.41
2022-08-28T11:49:29.154Z,46.18
2022-08-28T11:52:23.512Z,46.16
2022-08-28T11:55:24.778Z,46.29
2022-08-28T11:58:25.014Z,46.46
2022-08-28T12:01:05.231Z,46.08
2022-08-28T12:04:08.092Z,45.63
2022-08-28T12:06:50.306Z,45.72
2022-08-28T12:09:26.504Z,46.31
2022-08-28T12:11:59.791Z,46.15
2022-08-28T12:14:27.205Z,45.70
2022-08-28T12:17:01.245Z,46.13
2022-08-28T12:19:49.950Z,46.30
2022-08-28T12:22:26.853Z,46.29
2022-08-28T12:25:01.113Z,46.57
2022-08-28T12:27:28.808Z,46.46
2022-08-28T12:29:58.979Z,45.94
2022-08-28T12:32:34.569Z,46.27
2022-08-28T12:35:02.180Z,46.10
2022-08-28T12:37:51.626Z,46.73
2022-08-28T12:40:24.852Z,46.51
2022-08-28T12:42:59.269Z,46.13
2022-08-28T12:45:34.195Z,47.10
2022-08-28T12:48:04.710Z,47.03
2022-08-28T12:50:39.801Z,46.90
2022-08-28T12:53:12.954Z,47.22
2022-08-28T12:55:40.447Z,47.34
2022-08-28T12:58:27.974Z,48.02
2022-08-28T13:00:58.874Z,47.27
2022-08-28T13:03:25.989Z,46.55
2022-08-28T13:06:05.455Z,47.04
2022-08-28T13:08:35.236Z,46.76
2022-08-28T13:11:02.048Z,46.31
2022-08-28T13:13:47.048Z,46.36
2022-08-28T13:16:38.755Z,46.20
2022-08-28T13:19:05.509Z,45.97
2022-08-28T13:21:36.126Z,45.13
2022-08-28T13:24:24.236Z,45.27
2022-08-28T13:27:05.239Z,45.29
2022-08-28T13:29:32.816Z,43.92
2022-08-28T13:32:09.475Z,43.99
2022-08-28T13:34:39.066Z,44.05
2022-08-28T13:37:54.331Z,43.98
2022-08-28T13:40:55.912Z,44.12
2022-08-28T13:43:12.323Z,43.52
2022-08-28T13:45:44.096Z,42.47
2022-08-28T13:48:14.002Z,41.48
2022-08-28T13:50:45.669Z,41.42
2022-08-28T13:53:15.899Z,40.68
2022-08-28T13:55:42.868Z,40.13
2022-08-28T13:58:09.602Z,40.77
2022-08-28T14:00:41.439Z,40.38
2022-08-28T14:03:27.261Z,39.87
2022-08-28T14:05:54.502Z,40.18
2022-08-28T14:08:22.306Z,40.02
2022-08-28T14:10:49.151Z,40.37
2022-08-28T14:13:16.097Z,40.61
2022-08-28T14:15:43.101Z,40.68
2022-08-28T14:18:09.762Z,40.89
2022-08-28T14:20:38.211Z,40.56
2022-08-28T14:23:05.334Z,40.62
2022-08-28T14:25:37.030Z,40.53
2022-08-28T14:28:06.090Z,40.54
2022-08-28T14:30:32.810Z,41.09
2022-08-28T14:32:59.484Z,41.29
2022-08-28T14:35:26.706Z,41.78
2022-08-28T14:37:53.456Z,41.94
2022-08-28T14:40:20.271Z,42.71
2022-08-28T14:42:47.579Z,42.76
2022-08-28T14:45:14.299Z,42.21
2022-08-28T14:47:41.379Z,42.32
2022-08-28T14:50:08.778Z,42.29
2022-08-28T14:52:35.682Z,42.06
2022-08-28T14:55:02.437Z,42.25
2022-08-28T14:57:29.523Z,42.21
2022-08-28T14:59:56.319Z,42.46
2022-08-28T15:02:23.395Z,42.55
2022-08-28T15:04:50.406Z,42.76
2022-08-28T15:07:17.182Z,43.09
2022-08-28T15:09:43.896Z,43.22
2022-08-28T15:12:11.432Z,43.34
2022-08-28T15:14:38.261Z,43.57
2022-08-28T15:17:05.404Z,44.16
2022-08-28T15:19:32.452Z,44.52
2022-08-28T15:21:59.556Z,44.96
2022-08-28T15:24:30.935Z,45.13
2022-08-28T15:26:59.740Z,45.06
2022-08-28T15:29:29.956Z,44.85
2022-08-28T15:31:57.334Z,44.83
2022-08-28T15:34:26.510Z,45.08
2022-08-28T15:36:55.204Z,45.54
2022-08-28T15:39:46.595Z,45.73
2022-08-28T15:42:14.795Z,45.83
2022-08-28T15:44:42.369Z,46.06
2022-08-28T15:47:09.160Z,47.13
2022-08-28T15:49:46.604Z,48.53
2022-08-28T15:52:18.537Z,49.70
2022-08-28T15:54:45.679Z,50.38
2022-08-28T15:57:12.386Z,51.78
2022-08-28T15:59:48.698Z,52.51
2022-08-28T16:02:23.415Z,52.29
2022-08-28T16:04:51.840Z,52.07
2022-08-28T16:07:21.079Z,52.51
2022-08-28T16:09:47.972Z,52.66
2022-08-28T16:12:15.273Z,53.55
2022-08-28T16:14:42.156Z,54.33
2022-08-28T16:17:10.747Z,54.66
2022-08-28T16:19:39.941Z,55.36
2022-08-28T16:22:07.509Z,56.06
2022-08-28T16:24:34.552Z,56.21
2022-08-28T16:27:01.598Z,56.39
2022-08-28T16:29:28.588Z,56.76
2022-08-28T16:31:56.638Z,56.87
2022-08-28T16:34:27.055Z,57.08
2022-08-28T16:36:56.130Z,57.50
2022-08-28T16:39:23.222Z,57.99
2022-08-28T16:41:50.312Z,58.36
2022-08-28T16:44:21.528Z,58.94
2022-08-28T16:46:48.513Z,59.10
2022-08-28T16:49:15.270Z,56.95
2022-08-28T16:51:41.996Z,59.59
2022-08-28T16:54:09.154Z,59.95
2022-08-28T16:56:35.912Z,59.96
2022-08-28T16:59:03.010Z,59.48
2022-08-28T17:01:37.842Z,59.39
2022-08-28T17:04:07.749Z,59.55
2022-08-28T17:06:34.925Z,59.63
2022-08-28T17:09:01.950Z,59.85
2022-08-28T17:11:29.016Z,59.98
2022-08-28T17:13:55.819Z,60.08
2022-08-28T17:16:24.427Z,60.22
2022-08-28T17:18:52.956Z,60.51
2022-08-28T17:21:40.137Z,60.74
2022-08-28T17:24:09.382Z,60.94
2022-08-28T17:26:36.111Z,61.22
2022-08-28T17:29:03.347Z,61.42
2022-08-28T17:31:30.623Z,61.62
2022-08-28T17:33:57.345Z,61.82
2022-08-28T17:36:33.471Z,61.96
2022-08-28T17:39:03.689Z,62.22
2022-08-28T17:41:30.492Z,62.41
2022-08-28T17:43:57.378Z,62.61
2022-08-28T17:46:25.782Z,62.82
2022-08-28T17:48:55.883Z,63.07
2022-08-28T17:51:42.802Z,63.25
2022-08-28T17:54:16.827Z,63.33
2022-08-28T17:56:44.958Z,63.59
2022-08-28T17:59:12.556Z,63.94
2022-08-28T18:01:41.735Z,64.13
2022-08-28T18:04:09.241Z,64.39
2022-08-28T18:06:36.878Z,64.50
2022-08-28T18:09:04.584Z,64.69
2022-08-28T18:11:31.610Z,65.01
2022-08-28T18:13:59.784Z,65.07
2022-08-28T18:16:31.082Z,65.24
2022-08-28T18:19:04.045Z,65.32
2022-08-28T18:21:31.145Z,65.52
2022-08-28T18:23:58.275Z,65.81
2022-08-28T18:26:25.091Z,66.08
2022-08-28T18:28:52.281Z,66.13
2022-08-28T18:31:20.283Z,66.32
2022-08-28T18:33:47.210Z,66.44
2022-08-28T18:36:15.059Z,66.46
2022-08-28T18:38:43.712Z,66.64
2022-08-28T18:41:12.092Z,66.70
2022-08-28T18:43:39.654Z,66.89
2022-08-28T18:46:08.906Z,66.86
2022-08-28T18:48:36.801Z,66.90
2022-08-28T18:51:06.590Z,66.96
2022-08-28T18:53:34.056Z,66.84
2022-08-28T18:56:01.814Z,66.93
2022-08-28T18:58:30.639Z,66.91
2022-08-28T19:00:57.593Z,67.00
2022-08-28T19:03:24.394Z,67.01
2022-08-28T19:05:51.905Z,67.13
2022-08-28T19:08:19.189Z,67.36
2022-08-28T19:10:46.637Z,67.59
2022-08-28T19:13:13.342Z,67.53
2022-08-28T19:15:40.947Z,67.88
2022-08-28T19:18:07.893Z,67.99
2022-08-28T19:20:34.885Z,67.78
2022-08-28T19:23:01.993Z,67.94
2022-08-28T19:25:30.680Z,67.83
2022-08-28T19:28:04.178Z,68.09
2022-08-28T19:30:33.390Z,68.13
2022-08-28T19:33:02.418Z,68.05
2022-08-28T19:35:29.331Z,68.80
2022-08-28T19:37:56.369Z,69.12
2022-08-28T19:40:23.384Z,69.30
2022-08-28T19:42:50.378Z,69.50
2022-08-28T19:45:18.463Z,69.51
2022-08-28T19:47:46.853Z,69.46
2022-08-28T19:50:15.233Z,69.67
2022-08-28T19:52:43.445Z,70.11
2022-08-28T19:55:17.659Z,70.47
2022-08-28T19:57:46.838Z,70.56
2022-08-28T20:00:17.653Z,70.80
2022-08-28T20:02:45.676Z,70.58
2022-08-28T20:05:12.714Z,70.83
2022-08-28T20:07:39.799Z,70.86
2022-08-28T20:10:07.457Z,70.73
2022-08-28T20:12:34.701Z,70.96
2022-08-28T20:15:03.758Z,71.32
2022-08-28T20:17:30.886Z,71.05
2022-08-28T20:20:02.309Z,71.39
2022-08-28T20:22:31.842Z,71.38
2022-08-28T20:24:59.693Z,71.34
2022-08-28T20:27:26.759Z,71.05
2022-08-28T20:29:53.577Z,71.31
2022-08-28T20:32:20.687Z,71.39
2022-08-28T20:34:47.370Z,71.37
2022-08-28T20:37:14.152Z,71.29
2022-08-28T20:39:41.745Z,71.73
2022-08-28T20:42:09.428Z,71.59
2022-08-28T20:44:36.098Z,71.89
2022-08-28T20:47:03.766Z,72.37
2022-08-28T20:49:30.451Z,72.34
2022-08-28T20:51:57.520Z,72.45
2022-08-28T20:54:33.817Z,72.48
2022-08-28T20:57:03.592Z,72.73
2022-08-28T20:59:39.192Z,72.67
2022-08-28T21:02:22.211Z,72.86
2022-08-28T21:04:50.472Z,73.08
2022-08-28T21:07:19.335Z,73.22
2022-08-28T21:10:05.029Z,73.21
2022-08-28T21:12:35.476Z,73.34
2022-08-28T21:15:02.398Z,73.34
2022-08-28T21:17:30.781Z,73.48
2022-08-28T21:20:06.156Z,73.77
2022-08-28T21:22:35.303Z,73.78
2022-08-28T21:25:05.670Z,74.06
2022-08-28T21:27:32.736Z,74.17
2022-08-28T21:30:00.835Z,73.93
2022-08-28T21:32:29.793Z,74.23
2022-08-28T21:34:57.014Z,74.06
2022-08-28T21:37:23.962Z,74.56
2022-08-28T21:39:52.323Z,74.39
2022-08-28T21:42:20.767Z,74.31
2022-08-28T21:44:51.847Z,74.64
2022-08-28T21:47:23.869Z,75.38
2022-08-28T21:49:52.272Z,75.76
2022-08-28T21:52:21.022Z,75.83
2022-08-28T21:54:48.480Z,76.34
2022-08-28T21:57:16.585Z,76.56
2022-08-28T21:59:43.689Z,76.12
2022-08-28T22:02:10.465Z,76.14
2022-08-28T22:04:37.782Z,76.87
2022-08-28T22:07:04.750Z,77.28
2022-08-28T22:09:31.466Z,77.18
2022-08-28T22:11:58.478Z,77.51
2022-08-28T22:14:25.315Z,77.20
2022-08-28T22:16:52.301Z,77.24
2022-08-28T22:19:19.700Z,77.12
2022-08-28T22:22:04.937Z,77.15
2022-08-28T22:24:32.006Z,77.04
2022-08-28T22:26:58.721Z,76.67
2022-08-28T22:29:26.057Z,76.19
2022-08-28T22:31:53.133Z,76.05
2022-08-28T22:34:20.087Z,75.87
2022-08-28T22:36:47.053Z,75.46
2022-08-28T22:39:14.207Z,75.40
2022-08-28T22:41:42.052Z,75.34
2022-08-28T22:44:09.309Z,75.42
2022-08-28T22:46:36.283Z,75.20
2022-08-28T22:49:03.529Z,75.03
2022-08-28T22:51:32.713Z,75.40
2022-08-28T22:53:59.704Z,75.24
2022-08-28T22:56:26.442Z,74.75
2022-08-28T22:58:53.177Z,74.68
2022-08-28T23:01:24.434Z,74.84
2022-08-28T23:03:51.342Z,74.82
2022-08-28T23:06:18.321Z,74.64
2022-08-28T23:08:45.222Z,74.28
2022-08-28T23:11:11.921Z,73.58
2022-08-28T23:13:38.946Z,73.07
2022-08-28T23:16:07.024Z,72.92
2022-08-28T23:18:51.954Z,72.31
2022-08-28T23:21:26.356Z,72.43
2022-08-28T23:23:54.988Z,71.76
2022-08-28T23:26:23.329Z,71.30
2022-08-28T23:28:50.218Z,71.19
2022-08-28T23:31:16.874Z,71.11
2022-08-28T23:33:43.845Z,70.94
2022-08-28T23:36:10.973Z,71.21
2022-08-28T23:38:40.780Z,71.29
2022-08-28T23:41:11.396Z,71.31
2022-08-28T23:43:38.381Z,71.40
2022-08-28T23:46:06.419Z,71.41
2022-08-28T23:48:35.318Z,71.57
2022-08-28T23:51:02.532Z,70.79
2022-08-28T23:53:29.433Z,70.20
2022-08-28T23:55:59.540Z,69.47
2022-08-28T23:58:31.962Z,68.81
